Terminal Aerodrome Forecast
Issued by NWS Bismarck, ND

Home | Current Version | Previous Version | Graphics & Text | Print | Product List | Glossary On
Versions: 1 2 3 4 5 6 7 8 9 10 11 12 13 14 15 16 17 18
483
FTUS43 KBIS 191739
TAFISN
TAF
KISN 191739Z 1918/2018 10011KT 5SM BR OVC004
     FM192100 09007KT P6SM BKN008
     FM200300 00000KT P6SM OVC003
     FM200700 VRB03KT P6SM -RA OVC008
     FM201200 28006KT P6SM BKN035=

USA.gov is the U.S. government's official web portal to all federal, state and local government web resources and services.